Time;durP1;ratioP1;P1;durP2;ratioP2;P2;SDS_P1;SDS_P2;PMS_P1;PMS_P2;Temp;Humidity;BMP_temperature;BMP_pressure;BME280_temperature;BME280_humidity;BME280_pressure;Samples;Min_cycle;Max_cycle;Signal;HPM_P1;HPM_P2
2023/01/21 00:00:20;;;;;;;;;;;;;;;16.41;54.54;100526.19;4957713;28;1046;-52
2023/01/21 00:02:46;;;;;;;;;;;;;;;16.96;52.60;100518.09;4958043;28;1149;-51
2023/01/21 00:05:11;;;;;;;;;;;;;;;16.08;54.80;100525.72;4968080;28;1181;-53
2023/01/21 00:07:36;;;;;;;;;;;;;;;15.77;55.26;100544.06;4958572;28;1913;-54
2023/01/21 00:10:02;;;;;;;;;;;;;;;15.52;55.34;100532.81;4957825;28;1085;-53
2023/01/21 00:12:27;;;;;;;;;;;;;;;16.12;54.87;100535.06;4957671;28;1006;-53
2023/01/21 00:14:53;;;;;;;;;;;;;;;17.23;52.08;100547.06;4957817;28;1161;-54
2023/01/21 00:17:18;;;;;;;;;;;;;;;16.17;54.79;100550.69;4960664;28;913;-52
2023/01/21 00:19:44;;;;;;;;;;;;;;;15.76;55.55;100536.97;4957384;28;1153;-51
2023/01/21 00:22:09;;;;;;;;;;;;;;;15.55;55.36;100548.72;4958271;28;1168;-54
2023/01/21 00:24:35;;;;;;;;;;;;;;;15.37;55.71;100555.53;4957812;28;1077;-52
2023/01/21 00:27:00;;;;;;;;;;;;;;;16.62;53.96;100551.69;4960430;28;1909;-53
2023/01/21 00:29:25;;;;;;;;;;;;;;;16.68;53.45;100558.00;4955485;28;1177;-53
2023/01/21 00:31:51;;;;;;;;;;;;;;;15.90;55.27;100565.50;4961782;28;1065;-51
2023/01/21 00:34:17;;;;;;;;;;;;;;;15.60;55.54;100567.09;4961703;28;1157;-51
2023/01/21 00:36:43;;;;;;;;;;;;;;;15.40;55.59;100570.63;4961956;28;1121;-53
2023/01/21 00:39:08;;;;;;;;;;;;;;;16.70;53.60;100573.06;4961528;28;1086;-51
2023/01/21 00:41:36;;;;;;;;;;;;;;;16.73;53.33;100550.56;4965832;28;851;-52
2023/01/21 00:44:01;;;;;;;;;;;;;;;15.91;55.33;100570.72;4961313;28;1212;-53
2023/01/21 00:46:27;;;;;;;;;;;;;;;15.60;55.63;100571.75;4961304;28;1890;-51
2023/01/21 00:48:54;;;;;;;;;;;;;;;15.42;55.51;100567.59;4960865;28;1181;-51
2023/01/21 00:51:20;;;;;;;;;;;;;;;16.53;54.23;100567.91;4961595;28;1097;-51
2023/01/21 00:53:45;;;;;;;;;;;;;;;16.80;52.86;100574.13;4972930;28;1086;-50
2023/01/21 00:56:11;;;;;;;;;;;;;;;15.94;55.18;100568.53;4960887;28;1188;-49
2023/01/21 00:58:37;;;;;;;;;;;;;;;15.65;55.44;100577.25;4960687;28;1069;-53
2023/01/21 01:01:03;;;;;;;;;;;;;;;15.42;55.56;100568.44;4961088;28;1085;-48
2023/01/21 01:03:28;;;;;;;;;;;;;;;16.85;53.25;100560.41;4960836;28;1022;-53
2023/01/21 01:05:54;;;;;;;;;;;;;;;16.63;53.67;100569.78;4966713;28;1159;-52
2023/01/21 01:08:19;;;;;;;;;;;;;;;15.91;55.13;100561.69;4961299;28;1981;-52
2023/01/21 01:10:45;;;;;;;;;;;;;;;15.62;55.44;100558.59;4961177;28;1161;-50
2023/01/21 01:13:10;;;;;;;;;;;;;;;15.39;55.53;100567.06;4961102;28;1128;-50
2023/01/21 01:15:36;;;;;;;;;;;;;;;16.66;53.85;100571.16;4960584;28;1149;-50
2023/01/21 01:18:01;;;;;;;;;;;;;;;16.75;53.03;100573.06;4973090;28;1113;-52
2023/01/21 01:20:26;;;;;;;;;;;;;;;15.90;55.24;100581.97;4960999;28;1150;-52
2023/01/21 01:22:52;;;;;;;;;;;;;;;15.63;55.40;100579.44;4960891;28;1124;-51
2023/01/21 01:25:17;;;;;;;;;;;;;;;15.55;55.79;100570.63;4960461;28;1124;-51
2023/01/21 01:27:43;;;;;;;;;;;;;;;17.19;52.33;100573.44;4960595;28;1910;-49
2023/01/21 01:30:08;;;;;;;;;;;;;;;16.39;53.81;100583.31;4968145;28;914;-52
2023/01/21 01:32:34;;;;;;;;;;;;;;;15.88;55.19;100584.97;4960303;28;1100;-51
2023/01/21 01:34:59;;;;;;;;;;;;;;;15.58;55.39;100574.75;4960631;28;1089;-52
2023/01/21 01:37:24;;;;;;;;;;;;;;;15.78;55.45;100579.47;4959596;28;998;-51
2023/01/21 01:39:50;;;;;;;;;;;;;;;17.33;51.95;100579.97;4960317;28;1129;-51
2023/01/21 01:42:16;;;;;;;;;;;;;;;16.31;54.34;100586.59;4961713;28;920;-54
2023/01/21 01:45:01;;;;;;;;;;;;;;;15.85;55.31;100579.19;4960647;28;1108;-50
2023/01/21 01:47:29;;;;;;;;;;;;;;;15.54;55.72;100579.97;4942583;28;1888;-52
2023/01/21 01:49:55;;;;;;;;;;;;;;;15.68;55.76;100582.19;4960529;28;1073;-51
2023/01/21 01:52:20;;;;;;;;;;;;;;;17.28;51.95;100583.56;4960408;28;1312;-51
2023/01/21 01:54:47;;;;;;;;;;;;;;;16.38;53.98;100571.50;4951260;29;868;-49
2023/01/21 01:57:14;;;;;;;;;;;;;;;15.86;55.10;100578.13;4960040;28;1050;-49
2023/01/21 01:59:40;;;;;;;;;;;;;;;15.60;55.22;100575.31;4960363;28;1437;-50
2023/01/21 02:02:06;;;;;;;;;;;;;;;15.44;55.68;100573.66;4960203;28;1066;-52
2023/01/21 02:04:33;;;;;;;;;;;;;;;17.06;52.61;100570.22;4960174;28;1058;-48
2023/01/21 02:06:58;;;;;;;;;;;;;;;16.52;53.74;100565.44;4976905;28;1938;-53
2023/01/21 02:09:28;;;;;;;;;;;;;;;15.86;55.47;100561.66;4960133;28;1034;-54
2023/01/21 02:11:57;;;;;;;;;;;;;;;15.60;55.41;100563.53;4960038;28;1070;-52
2023/01/21 02:14:22;;;;;;;;;;;;;;;15.40;55.65;100578.84;4942871;29;1126;-53
2023/01/21 02:17:00;;;;;;;;;;;;;;;16.61;53.89;100577.50;4961507;28;1054;-52
2023/01/21 02:19:31;;;;;;;;;;;;;;;16.62;53.60;100584.63;4966603;28;1258;-52
2023/01/21 02:21:56;;;;;;;;;;;;;;;15.84;55.16;100592.09;4947691;28;1462;-55
2023/01/21 02:24:41;;;;;;;;;;;;;;;15.55;55.77;100589.00;4959328;28;1082;-52
2023/01/21 02:27:20;;;;;;;;;;;;;;;15.53;55.96;100592.03;4959280;28;1979;-52
2023/01/21 02:29:55;;;;;;;;;;;;;;;17.26;52.04;100602.28;4945687;29;1252;-54
2023/01/21 02:32:46;;;;;;;;;;;;;;;16.21;54.40;100593.72;4959362;28;1074;-53
2023/01/21 02:35:24;;;;;;;;;;;;;;;15.68;55.71;100591.25;4934679;28;1087;-52
2023/01/21 02:37:55;;;;;;;;;;;;;;;15.45;55.69;100587.06;4959201;28;1136;-55
2023/01/21 02:40:39;;;;;;;;;;;;;;;16.99;52.81;100591.69;4959559;28;1133;-54
2023/01/21 02:43:08;;;;;;;;;;;;;;;16.23;54.42;100602.53;4969024;28;948;-50
2023/01/21 02:45:45;;;;;;;;;;;;;;;15.68;55.61;100595.88;4959578;28;1260;-54
2023/01/21 02:48:15;;;;;;;;;;;;;;;15.50;55.45;100597.22;4941054;28;1902;-52
2023/01/21 02:50:43;;;;;;;;;;;;;;;17.08;52.44;100576.25;4958539;28;1133;-53
2023/01/21 02:53:22;;;;;;;;;;;;;;;16.47;53.70;100581.94;4961093;28;1193;-53
2023/01/21 02:55:47;;;;;;;;;;;;;;;15.82;55.04;100579.75;4959700;28;1157;-53
2023/01/21 02:58:13;;;;;;;;;;;;;;;15.60;55.40;100583.56;4959032;28;1031;-54
2023/01/21 03:00:54;;;;;;;;;;;;;;;15.78;55.58;100582.22;4942088;29;1217;-54
2023/01/21 03:03:29;;;;;;;;;;;;;;;17.08;52.46;100573.50;4958737;28;1138;-53
2023/01/21 03:06:00;;;;;;;;;;;;;;;15.96;55.04;100586.34;4959062;28;1220;-55
2023/01/21 03:08:46;;;;;;;;;;;;;;;15.63;55.39;100591.22;4958843;28;1985;-55
2023/01/21 03:11:15;;;;;;;;;;;;;;;15.38;55.70;100595.53;4958895;28;1192;-53
2023/01/21 03:19:12;;;;;;;;;;;;;;;16.18;54.41;100583.31;4963186;28;1255;-50
2023/01/21 03:21:37;;;;;;;;;;;;;;;15.72;55.17;100597.00;4958738;28;1078;-52
2023/01/21 03:24:03;;;;;;;;;;;;;;;15.47;55.60;100590.34;4958569;28;1069;-53
2023/01/21 03:26:30;;;;;;;;;;;;;;;15.38;55.48;100597.47;4941565;29;1914;-54
2023/01/21 03:28:56;;;;;;;;;;;;;;;16.97;52.81;100587.56;4941343;29;1174;-54
2023/01/21 03:31:28;;;;;;;;;;;;;;;16.35;53.87;100588.50;4970877;28;1185;-55
2023/01/21 03:33:54;;;;;;;;;;;;;;;15.72;55.27;100595.09;4941562;29;1153;-53
2023/01/21 03:36:39;;;;;;;;;;;;;;;15.46;55.69;100593.38;4941187;29;1425;-54
2023/01/21 03:39:07;;;;;;;;;;;;;;;17.26;51.94;100606.94;4957854;28;1026;-56
2023/01/21 03:41:33;;;;;;;;;;;;;;;16.31;54.08;100603.06;4960534;28;1149;-55
2023/01/21 03:43:59;;;;;;;;;;;;;;;15.78;54.99;100600.56;4962668;28;1179;-55
2023/01/21 03:46:33;;;;;;;;;;;;;;;15.57;55.30;100620.53;4958072;28;1914;-52
2023/01/21 03:49:01;;;;;;;;;;;;;;;16.05;55.02;100622.28;4958773;28;1142;-53
2023/01/21 03:51:37;;;;;;;;;;;;;;;17.35;51.57;100616.25;4940906;29;1142;-53
2023/01/21 03:54:02;;;;;;;;;;;;;;;16.14;54.31;100612.41;4940809;29;1130;-50
2023/01/21 03:56:28;;;;;;;;;;;;;;;15.71;55.05;100631.81;4958444;28;1081;-51
2023/01/21 03:58:53;;;;;;;;;;;;;;;15.49;55.49;100636.69;4958151;28;1094;-52
2023/01/21 04:01:19;;;;;;;;;;;;;;;16.56;53.60;100637.88;4957475;28;1138;-55
2023/01/21 04:03:44;;;;;;;;;;;;;;;16.87;52.71;100643.31;4958153;28;1069;-52
2023/01/21 04:06:13;;;;;;;;;;;;;;;15.95;54.72;100634.06;4964175;28;1038;-55
2023/01/21 04:08:38;;;;;;;;;;;;;;;15.60;55.22;100652.06;4958489;28;1137;-54
2023/01/21 04:11:04;;;;;;;;;;;;;;;15.44;55.41;100650.38;4956140;28;2192;-54
2023/01/21 04:13:29;;;;;;;;;;;;;;;16.84;52.88;100652.13;4957031;28;2037;-53
2023/01/21 04:15:55;;;;;;;;;;;;;;;16.65;53.12;100651.88;4957096;28;2181;-56
2023/01/21 04:18:20;;;;;;;;;;;;;;;15.88;55.16;100649.97;4957878;28;1964;-49
2023/01/21 04:20:46;;;;;;;;;;;;;;;15.56;55.54;100654.50;4957475;28;1919;-51
2023/01/21 04:23:11;;;;;;;;;;;;;;;15.40;55.54;100656.41;4956743;28;1825;-51
2023/01/21 04:25:37;;;;;;;;;;;;;;;16.37;54.07;100652.19;4957676;28;2127;-49
2023/01/21 04:28:02;;;;;;;;;;;;;;;17.16;51.72;100651.78;4957422;28;1910;-51
2023/01/21 04:30:28;;;;;;;;;;;;;;;16.06;54.40;100649.44;4964421;28;1069;-48
2023/01/21 04:32:53;;;;;;;;;;;;;;;15.69;55.31;100655.91;4960028;28;1025;-46
2023/01/21 04:35:18;;;;;;;;;;;;;;;15.46;55.45;100648.16;4940665;29;1047;-52
2023/01/21 04:37:44;;;;;;;;;;;;;;;16.56;53.55;100651.63;4957289;28;1100;-55
2023/01/21 04:40:10;;;;;;;;;;;;;;;17.10;51.63;100652.91;4957715;28;1089;-53
2023/01/21 04:42:35;;;;;;;;;;;;;;;16.05;54.54;100655.19;4940742;28;1210;-55
2023/01/21 04:45:00;;;;;;;;;;;;;;;15.71;55.10;100664.72;4956878;29;1118;-55
2023/01/21 04:47:26;;;;;;;;;;;;;;;15.47;55.24;100664.34;4957712;28;1975;-55
2023/01/21 04:49:52;;;;;;;;;;;;;;;16.28;54.00;100677.72;4957303;28;1189;-55
2023/01/21 04:52:17;;;;;;;;;;;;;;;16.90;52.23;100675.75;4959700;28;1353;-49
2023/01/21 04:54:43;;;;;;;;;;;;;;;16.05;54.09;100672.47;4957143;28;1972;-50
2023/01/21 04:57:09;;;;;;;;;;;;;;;15.73;54.66;100678.94;4956770;28;1174;-54
2023/01/21 04:59:35;;;;;;;;;;;;;;;15.97;54.24;100686.72;4957426;28;1050;-52
2023/01/21 05:02:00;;;;;;;;;;;;;;;17.22;51.13;100677.31;4956897;28;1042;-50
2023/01/21 05:04:26;;;;;;;;;;;;;;;16.14;53.56;100691.13;4957023;28;1002;-51
2023/01/21 05:06:51;;;;;;;;;;;;;;;15.67;54.82;100691.00;4959152;28;1975;-46
2023/01/21 05:09:16;;;;;;;;;;;;;;;15.46;55.10;100689.28;4957369;28;1049;-48
2023/01/21 05:11:42;;;;;;;;;;;;;;;16.56;52.92;100695.53;4957144;28;1065;-49
2023/01/21 05:14:07;;;;;;;;;;;;;;;16.79;51.88;100701.53;4959915;28;1165;-43
2023/01/21 05:16:33;;;;;;;;;;;;;;;15.91;54.35;100698.78;4960356;28;1185;-49
2023/01/21 05:18:58;;;;;;;;;;;;;;;15.58;54.73;100695.34;4967782;28;1216;-49
2023/01/21 05:21:24;;;;;;;;;;;;;;;15.94;53.95;100702.91;4961246;28;1084;-42
2023/01/21 05:23:49;;;;;;;;;;;;;;;17.23;50.34;100696.25;4960561;28;1027;-48
2023/01/21 05:26:14;;;;;;;;;;;;;;;16.14;53.08;100704.84;4972722;28;1898;-44
2023/01/21 05:28:40;;;;;;;;;;;;;;;15.71;54.06;100705.81;4960298;28;1095;-49
2023/01/21 05:31:05;;;;;;;;;;;;;;;15.46;54.60;100714.78;4965021;28;1026;-41
2023/01/21 05:33:31;;;;;;;;;;;;;;;16.69;52.11;100713.38;4960810;28;1074;-44
2023/01/21 05:35:56;;;;;;;;;;;;;;;16.66;52.01;100720.25;4973002;28;1081;-39
2023/01/21 05:38:22;;;;;;;;;;;;;;;15.84;53.89;100714.69;4960057;28;1074;-42
2023/01/21 05:40:47;;;;;;;;;;;;;;;15.55;54.65;100709.59;4960428;28;1026;-43
2023/01/21 05:43:13;;;;;;;;;;;;;;;15.60;54.73;100706.03;4968253;28;1094;-40
2023/01/21 05:45:38;;;;;;;;;;;;;;;17.27;50.60;100718.50;4963770;28;1057;-40
2023/01/21 05:48:04;;;;;;;;;;;;;;;16.23;52.93;100711.47;4957303;28;1888;-38
2023/01/21 05:50:31;;;;;;;;;;;;;;;15.71;54.53;100722.28;4959589;28;1030;-40
2023/01/21 05:52:57;;;;;;;;;;;;;;;15.49;54.59;100732.59;4959656;28;1029;-43
2023/01/21 05:55:22;;;;;;;;;;;;;;;16.94;51.72;100737.25;4959869;28;2286;-39
2023/01/21 05:57:47;;;;;;;;;;;;;;;16.47;52.51;100749.34;4960036;28;984;-41
2023/01/21 06:00:13;;;;;;;;;;;;;;;15.87;53.99;100747.03;4957213;28;1560;-42
2023/01/21 06:02:39;;;;;;;;;;;;;;;15.59;54.73;100749.09;4959354;28;1406;-37
2023/01/21 06:05:04;;;;;;;;;;;;;;;15.41;54.98;100753.09;4948523;28;1662;-47
2023/01/21 06:07:30;;;;;;;;;;;;;;;16.97;51.42;100742.22;4960098;28;1894;-51
2023/01/21 06:09:55;;;;;;;;;;;;;;;16.80;51.62;100752.63;4960010;28;1149;-50
2023/01/21 06:12:20;;;;;;;;;;;;;;;15.99;53.89;100755.84;4959385;28;1010;-46
2023/01/21 06:14:46;;;;;;;;;;;;;;;15.67;54.66;100743.09;4958724;28;1003;-48
2023/01/21 06:17:11;;;;;;;;;;;;;;;15.39;55.15;100753.38;4959723;28;1098;-48
2023/01/21 06:19:37;;;;;;;;;;;;;;;16.75;52.35;100750.72;4966926;28;1028;-45
2023/01/21 06:22:02;;;;;;;;;;;;;;;17.23;50.98;100753.16;4959748;28;1030;-47
2023/01/21 06:24:27;;;;;;;;;;;;;;;16.07;52.57;100758.06;4959340;28;2197;-44
2023/01/21 06:26:53;;;;;;;;;;;;;;;15.64;51.63;100751.00;4958930;28;1902;-47
2023/01/21 06:29:18;;;;;;;;;;;;;;;15.49;50.82;100760.00;4959062;28;1074;-47
2023/01/21 06:31:44;;;;;;;;;;;;;;;15.33;49.94;100764.56;4943656;29;924;-47
2023/01/21 06:34:11;;;;;;;;;;;;;;;15.28;49.12;100772.75;4958824;28;1096;-47
2023/01/21 06:36:37;;;;;;;;;;;;;;;15.18;49.06;100776.25;4959844;28;1038;-48
2023/01/21 06:39:02;;;;;;;;;;;;;;;15.98;51.53;100776.13;4958760;28;1006;-50
2023/01/21 06:41:27;;;;;;;;;;;;;;;16.69;50.77;100777.34;4958723;28;1013;-55
2023/01/21 06:43:53;;;;;;;;;;;;;;;17.88;49.42;100782.59;4967386;28;1140;-52
2023/01/21 06:46:18;;;;;;;;;;;;;;;16.64;51.28;100796.56;4958573;28;1894;-48
2023/01/21 06:48:44;;;;;;;;;;;;;;;16.17;50.52;100789.34;4959091;28;1089;-52
2023/01/21 06:51:10;;;;;;;;;;;;;;;16.00;49.27;100779.41;4958806;28;1141;-49
2023/01/21 06:53:35;;;;;;;;;;;;;;;16.83;49.69;100780.38;4958704;28;1142;-50
2023/01/21 06:56:01;;;;;;;;;;;;;;;16.57;50.14;100785.03;4958311;28;2518;-55
2023/01/21 06:58:26;;;;;;;;;;;;;;;16.18;49.52;100786.31;4958260;29;1268;-54
2023/01/21 07:00:54;;;;;;;;;;;;;;;17.21;49.88;100777.34;4958684;28;1179;-55
2023/01/21 07:03:21;;;;;;;;;;;;;;;16.33;50.09;100782.81;4959278;28;1049;-54
2023/01/21 07:05:46;;;;;;;;;;;;;;;17.47;49.98;100791.84;4957844;28;1039;-53
2023/01/21 07:08:11;;;;;;;;;;;;;;;17.14;50.44;100787.78;4957360;28;1972;-56
2023/01/21 07:10:37;;;;;;;;;;;;;;;16.57;49.65;100801.50;4957870;28;1094;-54
2023/01/21 07:13:02;;;;;;;;;;;;;;;16.49;48.11;100802.84;4958655;28;1180;-53
2023/01/21 07:15:29;;;;;;;;;;;;;;;16.96;49.23;100795.50;4958477;28;1097;-54
2023/01/21 07:17:55;;;;;;;;;;;;;;;16.71;49.19;100807.28;4957728;28;1145;-53
2023/01/21 07:20:21;;;;;;;;;;;;;;;16.43;48.22;100802.03;4968969;28;1225;-54
2023/01/21 07:22:47;;;;;;;;;;;;;;;16.60;48.80;100806.44;4958012;28;1019;-58
2023/01/21 07:25:12;;;;;;;;;;;;;;;16.82;49.01;100799.88;4957971;28;1789;-54
2023/01/21 07:27:39;;;;;;;;;;;;;;;16.49;48.36;100796.53;4944936;28;2453;-55
2023/01/21 07:30:05;;;;;;;;;;;;;;;16.39;47.57;100797.34;4958079;28;1608;-55
2023/01/21 07:32:30;;;;;;;;;;;;;;;17.42;48.33;100798.19;4961793;28;927;-47
2023/01/21 07:34:56;;;;;;;;;;;;;;;16.61;48.69;100799.84;4956548;28;2530;-56
2023/01/21 07:37:21;;;;;;;;;;;;;;;17.77;48.65;100796.41;4957435;28;1045;-57
2023/01/21 07:39:46;;;;;;;;;;;;;;;17.28;49.31;100792.44;4957592;28;1217;-48
2023/01/21 07:42:12;;;;;;;;;;;;;;;16.77;48.93;100790.53;4957669;28;1015;-49
2023/01/21 07:44:37;;;;;;;;;;;;;;;16.51;48.29;100800.66;4966389;28;1365;-54
2023/01/21 07:47:03;;;;;;;;;;;;;;;17.52;48.90;100804.75;4956372;29;1969;-56
2023/01/21 07:49:28;;;;;;;;;;;;;;;16.74;49.41;100802.06;4954967;28;1204;-56
2023/01/21 07:51:56;;;;;;;;;;;;;;;16.63;49.69;100808.63;4955750;28;955;-55
2023/01/21 07:54:22;;;;;;;;;;;;;;;16.97;49.68;100813.63;4957460;28;2405;-55
2023/01/21 07:56:47;;;;;;;;;;;;;;;16.51;49.05;100816.28;4958914;28;813;-56
2023/01/21 07:59:13;;;;;;;;;;;;;;;17.27;49.38;100817.44;4957750;28;1134;-55
2023/01/21 08:01:39;;;;;;;;;;;;;;;16.72;49.34;100817.19;4958408;28;1157;-55
2023/01/21 08:04:06;;;;;;;;;;;;;;;16.32;49.03;100805.84;4958053;28;1177;-54
2023/01/21 08:06:31;;;;;;;;;;;;;;;16.25;47.88;100810.78;4957764;28;1899;-55
2023/01/21 08:08:57;;;;;;;;;;;;;;;17.34;48.66;100809.72;4964502;28;1136;-55
2023/01/21 08:11:22;;;;;;;;;;;;;;;16.50;49.25;100804.50;4957483;28;1139;-54
2023/01/21 08:13:48;;;;;;;;;;;;;;;17.77;48.67;100804.66;4957735;28;1213;-53
2023/01/21 08:16:14;;;;;;;;;;;;;;;17.42;49.56;100809.19;4957681;28;1054;-55
2023/01/21 08:18:39;;;;;;;;;;;;;;;16.71;49.57;100799.03;4957037;28;1169;-55
2023/01/21 08:21:04;;;;;;;;;;;;;;;16.56;48.62;100794.34;4959041;28;876;-54
2023/01/21 08:23:30;;;;;;;;;;;;;;;17.19;49.58;100801.53;4957417;28;1141;-55
2023/01/21 08:25:56;;;;;;;;;;;;;;;16.68;49.42;100803.16;4957378;28;2214;-54
2023/01/21 08:28:21;;;;;;;;;;;;;;;17.95;48.85;100800.50;4957092;28;1906;-55
2023/01/21 08:30:47;;;;;;;;;;;;;;;17.93;49.09;100802.69;4957740;28;1057;-55
2023/01/21 08:33:12;;;;;;;;;;;;;;;17.14;49.58;100801.50;4959073;28;889;-56
2023/01/21 08:35:38;;;;;;;;;;;;;;;16.80;48.80;100815.78;4957381;28;1114;-57
2023/01/21 08:38:03;;;;;;;;;;;;;;;16.54;48.29;100802.06;4957530;28;1149;-57
2023/01/21 08:40:29;;;;;;;;;;;;;;;16.44;47.99;100808.34;4957651;28;1173;-57
2023/01/21 08:42:58;;;;;;;;;;;;;;;16.25;47.41;100797.06;4944192;28;1035;-53
2023/01/21 08:45:24;;;;;;;;;;;;;;;16.17;47.24;100805.81;4957274;28;1506;-55
2023/01/21 08:47:49;;;;;;;;;;;;;;;17.06;48.76;100805.66;4958928;28;1902;-55
2023/01/21 08:50:15;;;;;;;;;;;;;;;16.57;49.11;100809.75;4959652;28;1105;-55
2023/01/21 08:52:40;;;;;;;;;;;;;;;16.30;48.29;100810.78;4966226;28;1056;-54
2023/01/21 08:55:06;;;;;;;;;;;;;;;16.18;47.86;100805.53;4967573;28;2035;-56
2023/01/21 08:57:31;;;;;;;;;;;;;;;16.13;47.74;100807.44;4979449;28;897;-56
2023/01/21 08:59:57;;;;;;;;;;;;;;;16.08;47.27;100806.31;4966549;28;1041;-56
2023/01/21 09:02:22;;;;;;;;;;;;;;;16.02;46.86;100814.78;4962697;28;1038;-60
2023/01/21 09:04:49;;;;;;;;;;;;;;;15.82;46.81;100807.31;4960419;28;1161;-60
2023/01/21 09:07:14;;;;;;;;;;;;;;;15.76;46.38;100800.16;4960390;28;1914;-57
2023/01/21 09:09:40;;;;;;;;;;;;;;;15.70;46.50;100804.78;4964026;28;891;-58
2023/01/21 09:12:05;;;;;;;;;;;;;;;15.60;46.13;100804.72;4960963;28;1081;-52
2023/01/21 09:14:31;;;;;;;;;;;;;;;16.27;47.10;100800.38;4961210;28;1002;-58
2023/01/21 09:16:57;;;;;;;;;;;;;;;15.88;48.34;100793.38;4960760;28;1105;-47
2023/01/21 09:19:22;;;;;;;;;;;;;;;15.74;47.53;100792.19;4960118;28;1034;-45
2023/01/21 09:21:48;;;;;;;;;;;;;;;15.65;47.16;100791.03;4970296;28;1129;-50
2023/01/21 09:24:13;;;;;;;;;;;;;;;16.46;48.33;100786.13;4960597;28;1134;-45
2023/01/21 09:26:42;;;;;;;;;;;;;;;15.80;48.67;100779.38;4960334;28;1918;-45
2023/01/21 09:29:08;;;;;;;;;;;;;;;15.66;48.28;100790.78;4960309;28;1121;-54
2023/01/21 09:31:33;;;;;;;;;;;;;;;15.59;47.46;100792.13;4942704;29;1457;-53
2023/01/21 09:33:59;;;;;;;;;;;;;;;15.89;47.56;100799.66;4963180;28;942;-55
2023/01/21 09:36:26;;;;;;;;;;;;;;;16.03;48.91;100784.38;4962838;28;1208;-46
2023/01/21 09:38:51;;;;;;;;;;;;;;;15.73;48.63;100794.09;4960018;28;989;-52
2023/01/21 09:41:35;;;;;;;;;;;;;;;15.64;47.74;100787.50;4959274;29;1210;-50
2023/01/21 09:44:04;;;;;;;;;;;;;;;15.49;47.49;100792.91;4960076;29;1154;-50
2023/01/21 09:46:42;;;;;;;;;;;;;;;15.49;46.95;100790.16;4955292;28;1910;-51
2023/01/21 09:49:12;;;;;;;;;;;;;;;15.96;48.35;100786.53;4958564;28;891;-47
2023/01/21 09:51:49;;;;;;;;;;;;;;;15.62;48.34;100786.91;4944097;28;1023;-56
2023/01/21 09:54:25;;;;;;;;;;;;;;;15.94;47.89;100774.22;4962009;28;1228;-49
2023/01/21 09:56:57;;;;;;;;;;;;;;;15.83;48.47;100768.66;4948545;28;1042;-52
2023/01/21 09:59:41;;;;;;;;;;;;;;;15.66;47.97;100766.09;4965337;28;1038;-44
2023/01/21 10:02:08;;;;;;;;;;;;;;;15.47;47.64;100770.41;4959382;28;1138;-48
2023/01/21 10:04:33;;;;;;;;;;;;;;;15.98;48.86;100767.91;4959760;28;1145;-49
2023/01/21 10:07:14;;;;;;;;;;;;;;;15.60;48.59;100780.06;4959550;28;1981;-44
2023/01/21 10:09:46;;;;;;;;;;;;;;;15.40;47.73;100763.25;4948108;29;1153;-48
2023/01/21 10:12:26;;;;;;;;;;;;;;;16.35;48.19;100766.88;4959380;28;1054;-46
2023/01/21 10:14:55;;;;;;;;;;;;;;;15.69;48.64;100762.81;4947841;28;1074;-45
2023/01/21 10:17:49;;;;;;;;;;;;;;;15.48;48.08;100764.66;4959531;28;1082;-52
2023/01/21 10:20:20;;;;;;;;;;;;;;;16.75;48.05;100757.03;4957373;28;1270;-45
2023/01/21 10:22:56;;;;;;;;;;;;;;;15.84;49.45;100742.09;4958030;28;1115;-49
2023/01/21 10:25:29;;;;;;;;;;;;;;;15.64;48.60;100743.63;4957650;29;1782;-50
2023/01/21 10:27:55;;;;;;;;;;;;;;;15.57;47.83;100740.28;4958907;29;1985;-49
2023/01/21 10:30:24;;;;;;;;;;;;;;;16.47;48.48;100733.69;4942719;29;1064;-51
2023/01/21 10:32:50;;;;;;;;;;;;;;;15.81;49.03;100735.22;4961940;28;1152;-46
2023/01/21 10:35:16;;;;;;;;;;;;;;;15.56;48.41;100735.94;4941837;29;1077;-44
2023/01/21 10:37:44;;;;;;;;;;;;;;;15.50;47.97;100726.00;4958369;29;1233;-51
2023/01/21 10:40:41;;;;;;;;;;;;;;;16.22;48.67;100726.25;4958768;28;1057;-45
2023/01/21 10:43:08;;;;;;;;;;;;;;;15.66;48.70;100708.53;4949239;28;1288;-46
2023/01/21 10:45:40;;;;;;;;;;;;;;;15.49;48.12;100705.19;4964000;28;1118;-47
2023/01/21 10:48:08;;;;;;;;;;;;;;;16.12;48.26;100712.50;4958963;28;1994;-49
2023/01/21 10:50:34;;;;;;;;;;;;;;;16.15;48.95;100703.75;4958929;28;1116;-46
2023/01/21 10:53:32;;;;;;;;;;;;;;;15.69;48.75;100710.75;4950974;28;1250;-49
2023/01/21 10:55:57;;;;;;;;;;;;;;;15.53;48.15;100703.56;4928188;29;2570;-54
2023/01/21 10:58:28;;;;;;;;;;;;;;;16.35;48.91;100709.25;4959822;28;1121;-56
2023/01/21 11:00:54;;;;;;;;;;;;;;;15.77;48.92;100714.03;4959036;28;1077;-46
2023/01/21 11:03:22;;;;;;;;;;;;;;;15.64;48.28;100710.75;4973158;28;1133;-45
2023/01/21 11:05:48;;;;;;;;;;;;;;;15.31;48.11;100714.72;4958565;29;1190;-50
2023/01/21 11:08:16;;;;;;;;;;;;;;;15.40;48.03;100722.16;4951235;28;1981;-53
2023/01/21 11:10:42;;;;;;;;;;;;;;;16.21;48.68;100708.97;4945966;28;1028;-49
2023/01/21 11:13:08;;;;;;;;;;;;;;;15.71;49.08;100713.22;4941676;29;1012;-46
2023/01/21 11:15:33;;;;;;;;;;;;;;;15.47;48.35;100705.44;4941211;29;1106;-50
2023/01/21 11:17:59;;;;;;;;;;;;;;;16.40;48.72;100714.75;4941054;29;1126;-44
2023/01/21 11:20:24;;;;;;;;;;;;;;;15.80;49.40;100717.13;4958205;28;1014;-49
2023/01/21 11:22:50;;;;;;;;;;;;;;;15.72;48.26;100702.00;4958088;28;867;-48
2023/01/21 11:25:26;;;;;;;;;;;;;;;16.23;48.80;100704.03;4958047;28;2353;-46
2023/01/21 11:27:51;;;;;;;;;;;;;;;16.02;48.64;100705.94;4958212;28;2058;-51
2023/01/21 11:30:33;;;;;;;;;;;;;;;15.68;48.34;100706.38;4958474;28;1057;-47
2023/01/21 11:33:17;;;;;;;;;;;;;;;16.52;48.68;100699.94;4957944;28;1046;-49
2023/01/21 11:35:43;;;;;;;;;;;;;;;15.87;48.90;100708.66;4964055;28;1092;-47
2023/01/21 11:38:14;;;;;;;;;;;;;;;15.64;48.52;100697.03;4957872;28;1045;-51
2023/01/21 11:40:39;;;;;;;;;;;;;;;15.60;47.63;100704.16;4941162;28;1150;-52
2023/01/21 11:43:08;;;;;;;;;;;;;;;16.22;49.10;100701.56;4941471;29;1149;-43
2023/01/21 11:45:35;;;;;;;;;;;;;;;15.73;49.06;100720.06;4943248;28;1153;-43
2023/01/21 11:48:01;;;;;;;;;;;;;;;15.68;48.10;100728.31;4957754;28;1984;-44
2023/01/21 11:50:27;;;;;;;;;;;;;;;16.48;48.32;100724.38;4957653;28;1045;-45
2023/01/21 11:53:11;;;;;;;;;;;;;;;15.97;49.01;100725.09;4958025;28;1054;-41
2023/01/21 11:55:40;;;;;;;;;;;;;;;15.64;48.61;100732.66;4963841;28;2270;-41
2023/01/21 11:58:05;;;;;;;;;;;;;;;15.64;47.89;100734.56;4966323;28;1130;-42
2023/01/21 12:00:31;;;;;;;;;;;;;;;16.34;48.42;100732.31;4973961;28;1256;-40
2023/01/21 12:02:58;;;;;;;;;;;;;;;15.71;48.91;100738.72;4957463;28;1193;-42
2023/01/21 12:05:25;;;;;;;;;;;;;;;15.49;48.19;100744.38;4957702;28;1018;-42
2023/01/21 12:07:51;;;;;;;;;;;;;;;16.62;48.14;100741.13;4940937;29;1914;-41
2023/01/21 12:10:25;;;;;;;;;;;;;;;15.86;48.79;100734.41;4961334;28;1114;-46
2023/01/21 12:13:09;;;;;;;;;;;;;;;16.60;48.96;100735.06;4957901;28;1211;-45
2023/01/21 12:15:57;;;;;;;;;;;;;;;16.30;49.54;100744.94;4957693;28;1161;-42
2023/01/21 12:18:26;;;;;;;;;;;;;;;15.86;49.03;100745.38;4940090;29;1223;-43
2023/01/21 12:21:10;;;;;;;;;;;;;;;15.65;47.98;100750.75;4957433;28;1081;-43
2023/01/21 12:23:39;;;;;;;;;;;;;;;16.46;49.22;100731.22;4971350;28;938;-43
2023/01/21 12:26:21;;;;;;;;;;;;;;;15.82;49.24;100736.88;4973839;28;1762;-42
2023/01/21 12:28:47;;;;;;;;;;;;;;;15.62;48.33;100745.81;4944159;29;1958;-44
2023/01/21 12:31:22;;;;;;;;;;;;;;;16.29;48.95;100745.22;4961236;28;1165;-45
2023/01/21 12:34:06;;;;;;;;;;;;;;;15.81;48.79;100745.34;4964919;28;1038;-43
2023/01/21 12:36:45;;;;;;;;;;;;;;;15.69;48.01;100756.53;4949365;28;1148;-46
2023/01/21 12:39:31;;;;;;;;;;;;;;;15.55;47.36;100751.53;4959012;28;1563;-46
2023/01/21 12:41:56;;;;;;;;;;;;;;;16.18;48.43;100758.06;4953540;28;1038;-44
2023/01/21 12:44:27;;;;;;;;;;;;;;;15.66;48.44;100762.56;4961627;28;1125;-43
2023/01/21 12:46:54;;;;;;;;;;;;;;;15.52;47.73;100764.94;4971797;28;1961;-44
2023/01/21 12:49:21;;;;;;;;;;;;;;;15.33;47.65;100770.88;4961211;28;998;-48
2023/01/21 12:51:48;;;;;;;;;;;;;;;15.36;46.99;100780.47;4961105;28;1018;-47
2023/01/21 12:54:22;;;;;;;;;;;;;;;16.00;48.34;100776.66;4944610;29;1604;-49
2023/01/21 12:57:06;;;;;;;;;;;;;;;15.58;48.38;100783.06;4960660;29;1056;-46